Terminal Aerodrome Forecast
Issued by NWS Springfield, MO

Home | Current Version | Previous Version | Text Only | Print | Product List | Glossary On
Versions: 1 2 3 4 5 6 7 8 9 10 11 12 13 14 15 16 17 18 19 20 21
000
FTUS43 KSGF 260200 AAB
TAFSGF
TAF AMD
KSGF 260229Z 2602/2624 33016G23KT P6SM OVC010
     FM260400 34012KT P6SM OVC010
     FM260800 31005KT 6SM BR BKN010
     FM261000 VRB04KT 3SM BR SCT005
     FM261400 20006KT P6SM SKC
     FM261700 24013G19KT P6SM FEW100=

USA.gov is the U.S. government's official web portal to all federal, state and local government web resources and services.